Time;durP1;ratioP1;P1;durP2;ratioP2;P2;SDS_P1;SDS_P2;PMS_P1;PMS_P2;Temp;Humidity;BMP_temperature;BMP_pressure;BME280_temperature;BME280_humidity;BME280_pressure;Samples;Min_cycle;Max_cycle;Signal;HPM_P1;HPM_P2
2021/01/07 00:00:14;;;;;;;;;;;-0.50;98.20;;;;;;5774503;23;19916;-74
2021/01/07 00:02:40;;;;;;;;;;;-0.50;98.40;;;;;;5881473;22;19967;-79
2021/01/07 00:05:06;;;;;;;;;;;-0.50;98.50;;;;;;5341847;23;19933;-84
2021/01/07 00:07:32;;;;;;;;;;;-0.50;98.60;;;;;;5040820;28;20200;-85
2021/01/07 00:09:59;;;;;;;;;;;-0.50;98.70;;;;;;5378886;22;19905;-83
2021/01/07 00:12:24;;;;;;;;;;;-0.50;98.90;;;;;;5044369;28;19913;-84
2021/01/07 00:14:55;;;;;;;;;;;-0.50;98.80;;;;;;5044389;28;19905;-84
2021/01/07 00:17:25;;;;;;;;;;;-0.50;98.90;;;;;;5041986;28;19909;-84
2021/01/07 00:25:30;;;;;;;;;;;-0.60;98.80;;;;;;5040121;28;19910;-84
2021/01/07 00:27:55;;;;;;;;;;;-0.60;99.00;;;;;;5011600;28;19904;-85
2021/01/07 00:30:21;;;;;;;;;;;-0.60;98.90;;;;;;5106633;23;20010;-86
2021/01/07 00:35:22;;;;;;;;;;;-0.70;98.60;;;;;;5122646;23;19956;-85
2021/01/07 00:40:23;;;;;;;;;;;-0.70;98.80;;;;;;5203919;22;19983;-84
2021/01/07 00:42:49;;;;;;;;;;;-0.70;98.70;;;;;;5063828;28;19897;-84
2021/01/07 00:45:15;;;;;;;;;;;-0.70;98.70;;;;;;5074594;28;19920;-84
2021/01/07 00:47:42;;;;;;;;;;;-0.70;98.60;;;;;;5029791;28;19905;-85
2021/01/07 00:50:08;;;;;;;;;;;-0.80;98.60;;;;;;5395738;23;21441;-83
2021/01/07 00:52:34;;;;;;;;;;;-0.90;98.60;;;;;;5043216;28;19901;-84
2021/01/07 00:55:04;;;;;;;;;;;-0.90;98.80;;;;;;5927124;23;20112;-78
2021/01/07 00:57:30;;;;;;;;;;;-0.90;98.80;;;;;;5043877;28;19917;-85
2021/01/07 00:59:56;;;;;;;;;;;-0.90;98.80;;;;;;5598930;22;19929;-84
2021/01/07 01:02:23;;;;;;;;;;;-1.00;98.90;;;;;;5004548;28;19922;-84
2021/01/07 01:07:19;;;;;;;;;;;-1.00;99.00;;;;;;5059014;28;19916;-85
2021/01/07 01:09:45;;;;;;;;;;;-1.00;99.10;;;;;;5043483;28;19901;-84
2021/01/07 01:14:49;;;;;;;;;;;-1.10;99.00;;;;;;5461780;22;19980;-85
2021/01/07 01:17:15;;;;;;;;;;;-0.90;99.20;;;;;;5054206;28;19897;-85
2021/01/07 01:19:41;;;;;;;;;;;-1.00;98.90;;;;;;5269004;23;19988;-84
2021/01/07 01:22:07;;;;;;;;;;;-1.00;98.80;;;;;;5043148;28;19932;-85
2021/01/07 01:24:33;;;;;;;;;;;-1.10;98.70;;;;;;5336686;22;19916;-80
2021/01/07 01:29:34;;;;;;;;;;;-1.10;98.90;;;;;;5226772;22;19909;-84
2021/01/07 01:32:00;;;;;;;;;;;-1.20;98.60;;;;;;5432671;23;19948;-84
2021/01/07 01:44:43;;;;;;;;;;;-1.00;99.10;;;;;;5945340;22;19911;-77
2021/01/07 01:47:09;;;;;;;;;;;-1.10;98.90;;;;;;5041895;28;19905;-86
2021/01/07 01:52:10;;;;;;;;;;;-1.20;98.90;;;;;;5169210;23;19925;-83
2021/01/07 01:59:43;;;;;;;;;;;-1.20;98.70;;;;;;5076958;22;19929;-84
2021/01/07 02:02:13;;;;;;;;;;;-1.20;98.80;;;;;;5037511;28;19944;-85
2021/01/07 02:07:43;;;;;;;;;;;-1.30;98.90;;;;;;5449875;23;19917;-81
2021/01/07 02:10:09;;;;;;;;;;;-1.20;99.00;;;;;;5042159;28;19917;-85
2021/01/07 02:15:55;;;;;;;;;;;-1.20;99.20;;;;;;5462499;23;19909;-84
2021/01/07 02:18:40;;;;;;;;;;;-1.20;99.00;;;;;;5212656;23;19932;-79
2021/01/07 02:21:06;;;;;;;;;;;-1.20;98.90;;;;;;5039926;28;19905;-85
2021/01/07 02:31:47;;;;;;;;;;;-1.40;98.60;;;;;;5571761;22;20714;-83
2021/01/07 02:34:12;;;;;;;;;;;-1.40;98.70;;;;;;5038625;28;19914;-84
2021/01/07 02:36:40;;;;;;;;;;;-1.40;98.60;;;;;;5020383;28;19941;-85
2021/01/07 02:41:49;;;;;;;;;;;-1.40;98.70;;;;;;5328513;22;19916;-84
2021/01/07 02:44:15;;;;;;;;;;;-1.40;98.80;;;;;;5021903;28;19898;-85
2021/01/07 02:46:41;;;;;;;;;;;-1.40;98.70;;;;;;5030903;28;19905;-85
2021/01/07 02:49:10;;;;;;;;;;;-1.50;98.90;;;;;;5000236;28;19898;-85
2021/01/07 02:51:36;;;;;;;;;;;-1.40;98.40;;;;;;5001906;28;19936;-85
2021/01/07 02:54:02;;;;;;;;;;;-1.50;98.30;;;;;;5714366;23;19980;-83
2021/01/07 02:56:30;;;;;;;;;;;-1.50;98.40;;;;;;5081843;28;19932;-85
2021/01/07 02:58:55;;;;;;;;;;;-1.50;98.70;;;;;;5081416;28;19909;-85
2021/01/07 03:01:21;;;;;;;;;;;-1.50;98.60;;;;;;5086053;28;19897;-86
2021/01/07 03:03:47;;;;;;;;;;;-1.50;98.60;;;;;;5150275;23;19920;-86
2021/01/07 03:06:13;;;;;;;;;;;-1.60;98.70;;;;;;5000448;28;19921;-85
2021/01/07 03:08:39;;;;;;;;;;;-1.50;98.50;;;;;;5001537;28;19941;-85
2021/01/07 03:11:04;;;;;;;;;;;-1.60;98.30;;;;;;4998971;28;19934;-85
2021/01/07 03:16:08;;;;;;;;;;;-1.60;98.20;;;;;;5038411;28;19909;-84
2021/01/07 03:21:04;;;;;;;;;;;-1.60;98.40;;;;;;5122344;22;19909;-85
2021/01/07 03:23:29;;;;;;;;;;;-1.60;98.20;;;;;;5170615;23;20323;-83
2021/01/07 03:25:55;;;;;;;;;;;-1.70;98.20;;;;;;5125703;23;19909;-80
2021/01/07 03:28:22;;;;;;;;;;;-1.70;98.20;;;;;;5066470;22;19910;-85
2021/01/07 03:30:47;;;;;;;;;;;-1.80;98.30;;;;;;5027767;23;19909;-83
2021/01/07 03:35:50;;;;;;;;;;;-1.70;98.70;;;;;;5087199;23;19913;-85
2021/01/07 03:38:16;;;;;;;;;;;-1.70;98.50;;;;;;5066196;22;19964;-84
2021/01/07 03:40:42;;;;;;;;;;;-1.70;98.50;;;;;;5068033;28;19902;-84
2021/01/07 03:43:08;;;;;;;;;;;-1.70;98.40;;;;;;5193170;23;19909;-84
2021/01/07 03:45:37;;;;;;;;;;;-1.80;98.60;;;;;;5063765;23;20141;-83
2021/01/07 03:48:06;;;;;;;;;;;-1.70;98.60;;;;;;5222982;23;19952;-85
2021/01/07 03:50:32;;;;;;;;;;;-1.70;98.50;;;;;;5060879;28;19897;-85
2021/01/07 03:52:58;;;;;;;;;;;-1.70;98.30;;;;;;5534026;22;19917;-79
2021/01/07 03:55:24;;;;;;;;;;;-1.80;98.40;;;;;;5281405;23;19913;-84
2021/01/07 03:57:50;;;;;;;;;;;-1.80;98.30;;;;;;5064416;28;19901;-85
2021/01/07 04:00:16;;;;;;;;;;;-1.80;98.20;;;;;;5066819;28;19972;-85
2021/01/07 04:02:41;;;;;;;;;;;-1.90;98.30;;;;;;5061803;28;19893;-85
2021/01/07 04:05:07;;;;;;;;;;;-1.90;98.40;;;;;;5154049;22;19932;-81
2021/01/07 04:07:39;;;;;;;;;;;-1.90;98.10;;;;;;5081241;28;19927;-85
2021/01/07 04:10:09;;;;;;;;;;;-1.90;98.40;;;;;;5063593;28;19909;-85
2021/01/07 04:12:35;;;;;;;;;;;-2.10;98.40;;;;;;5063819;28;19944;-85
2021/01/07 04:15:04;;;;;;;;;;;-2.00;98.50;;;;;;5068623;28;19905;-84
2021/01/07 04:17:30;;;;;;;;;;;-2.00;98.50;;;;;;5043356;28;19900;-85
2021/01/07 04:19:56;;;;;;;;;;;-2.00;98.50;;;;;;5053713;28;19917;-85
2021/01/07 04:22:25;;;;;;;;;;;-2.00;98.60;;;;;;5045679;28;19924;-86
2021/01/07 04:24:51;;;;;;;;;;;-2.00;98.80;;;;;;5063092;28;19960;-85
2021/01/07 04:27:19;;;;;;;;;;;-2.00;98.80;;;;;;5061055;28;19919;-86
2021/01/07 04:29:45;;;;;;;;;;;-2.10;98.80;;;;;;5066928;28;19977;-85
2021/01/07 04:32:14;;;;;;;;;;;-2.00;98.90;;;;;;5040795;28;19900;-85
2021/01/07 04:34:40;;;;;;;;;;;-2.00;98.90;;;;;;5174465;22;19916;-85
2021/01/07 04:37:06;;;;;;;;;;;-2.00;98.80;;;;;;5063034;28;20286;-85
2021/01/07 04:44:42;;;;;;;;;;;-2.00;98.60;;;;;;5077085;28;19909;-85
2021/01/07 04:47:09;;;;;;;;;;;-2.10;98.70;;;;;;5202651;22;19931;-86
2021/01/07 04:49:35;;;;;;;;;;;-2.10;98.80;;;;;;5204314;22;20004;-86
2021/01/07 04:52:00;;;;;;;;;;;-2.10;99.00;;;;;;5023397;28;19921;-86
2021/01/07 04:54:26;;;;;;;;;;;-2.10;98.90;;;;;;5081227;23;19921;-85
2021/01/07 04:56:55;;;;;;;;;;;-2.10;99.20;;;;;;5114709;23;19948;-85
2021/01/07 04:59:21;;;;;;;;;;;-2.00;99.40;;;;;;5041934;28;19897;-85
2021/01/07 05:01:47;;;;;;;;;;;-2.00;99.30;;;;;;5040706;28;19909;-86
2021/01/07 05:04:17;;;;;;;;;;;-2.00;99.30;;;;;;5057729;28;19894;-85
2021/01/07 05:06:45;;;;;;;;;;;-1.90;99.50;;;;;;5059609;28;19913;-86
2021/01/07 05:09:10;;;;;;;;;;;-2.00;99.30;;;;;;5369512;23;19959;-85
2021/01/07 05:11:36;;;;;;;;;;;-2.00;99.30;;;;;;5070477;28;19897;-85
2021/01/07 05:14:03;;;;;;;;;;;-2.00;99.50;;;;;;5077289;23;19917;-85
2021/01/07 05:16:29;;;;;;;;;;;-2.00;99.90;;;;;;5042995;28;19914;-87
2021/01/07 05:18:55;;;;;;;;;;;-1.80;99.70;;;;;;5053087;23;20016;-86
2021/01/07 05:23:57;;;;;;;;;;;-1.80;99.80;;;;;;5196124;22;19947;-84
2021/01/07 05:26:33;;;;;;;;;;;;;;;;;;;;;
2021/01/07 05:31:28;;;;;;;;;;;-1.70;99.50;;;;;;5132290;23;19933;-86
2021/01/07 05:33:55;;;;;;;;;;;-1.80;99.50;;;;;;5204051;23;19925;-86
2021/01/07 05:36:24;;;;;;;;;;;-1.80;99.50;;;;;;5062627;28;19904;-86
2021/01/07 05:38:54;;;;;;;;;;;-1.70;99.60;;;;;;5084143;28;19956;-85
2021/01/07 05:41:20;;;;;;;;;;;-1.70;99.80;;;;;;5083039;28;19917;-86
2021/01/07 05:43:57;;;;;;;;;;;-1.60;99.80;;;;;;5089945;28;20002;-85
2021/01/07 05:46:24;;;;;;;;;;;-1.60;99.70;;;;;;5078878;28;19975;-85
2021/01/07 05:48:56;;;;;;;;;;;-1.60;99.70;;;;;;5207216;22;19992;-76
2021/01/07 05:51:29;;;;;;;;;;;-1.60;99.70;;;;;;5057735;28;19975;-86
2021/01/07 05:53:56;;;;;;;;;;;-1.60;99.60;;;;;;5049571;28;19913;-86
2021/01/07 05:58:57;;;;;;;;;;;-1.60;99.60;;;;;;5778705;23;19921;-85
2021/01/07 06:01:23;;;;;;;;;;;-1.40;99.90;;;;;;5059291;28;19920;-87
2021/01/07 06:03:51;;;;;;;;;;;-1.40;99.70;;;;;;5493870;23;20789;-77
2021/01/07 06:24:19;;;;;;;;;;;-1.30;99.70;;;;;;5503841;22;19931;-86
2021/01/07 06:31:56;;;;;;;;;;;-1.10;99.60;;;;;;5153354;22;19922;-84
2021/01/07 06:34:25;;;;;;;;;;;-1.10;99.50;;;;;;5041872;28;19905;-86
2021/01/07 06:36:51;;;;;;;;;;;-1.10;99.30;;;;;;5882023;23;19940;-85
2021/01/07 06:39:20;;;;;;;;;;;-1.10;99.20;;;;;;5181744;22;19929;-84
2021/01/07 06:44:30;;;;;;;;;;;-1.10;99.40;;;;;;5149673;22;19932;-86
2021/01/07 06:46:57;;;;;;;;;;;-1.00;99.40;;;;;;5042085;28;19909;-86
2021/01/07 06:49:24;;;;;;;;;;;-1.00;99.20;;;;;;5348616;22;19910;-84
2021/01/07 06:54:34;;;;;;;;;;;-1.00;99.50;;;;;;5186758;22;19909;-85
2021/01/07 06:57:03;;;;;;;;;;;-1.00;99.70;;;;;;5265955;23;19924;-77
2021/01/07 07:17:37;;;;;;;;;;;-0.90;99.40;;;;;;5042095;28;19910;-85
2021/01/07 07:20:05;;;;;;;;;;;-1.00;99.60;;;;;;5032330;28;19913;-86
2021/01/07 07:32:53;;;;;;;;;;;-0.80;99.50;;;;;;5036001;28;19910;-82
2021/01/07 07:37:56;;;;;;;;;;;-0.80;99.50;;;;;;5769991;23;19932;-84
2021/01/07 07:42:58;;;;;;;;;;;-0.90;99.50;;;;;;5162880;22;19931;-84
2021/01/07 07:45:24;;;;;;;;;;;-0.90;99.70;;;;;;5036714;28;19913;-80
2021/01/07 07:47:50;;;;;;;;;;;-0.90;99.50;;;;;;5038642;28;19940;-84
2021/01/07 07:50:27;;;;;;;;;;;-0.90;99.60;;;;;;5038307;28;19912;-82
2021/01/07 07:53:13;;;;;;;;;;;-0.90;99.80;;;;;;5036517;28;19913;-81
2021/01/07 07:55:41;;;;;;;;;;;-0.90;99.90;;;;;;5040697;28;19941;-80
2021/01/07 07:58:08;;;;;;;;;;;-0.90;99.90;;;;;;5031393;28;19917;-80
2021/01/07 08:00:37;;;;;;;;;;;-0.80;99.80;;;;;;5051480;28;20364;-81
2021/01/07 08:03:04;;;;;;;;;;;-0.90;99.80;;;;;;5055852;28;19909;-80
2021/01/07 08:05:32;;;;;;;;;;;-0.90;99.90;;;;;;5057238;28;19935;-81
2021/01/07 08:08:05;;;;;;;;;;;-0.90;99.90;;;;;;5041228;28;19913;-81
2021/01/07 08:10:32;;;;;;;;;;;-0.90;99.80;;;;;;5040094;28;19909;-81
2021/01/07 08:13:00;;;;;;;;;;;-0.90;99.70;;;;;;5032443;28;19916;-81
2021/01/07 08:15:30;;;;;;;;;;;-1.00;99.80;;;;;;5026254;28;19976;-80
2021/01/07 08:17:56;;;;;;;;;;;-1.00;99.80;;;;;;5035850;28;19914;-80
2021/01/07 08:20:25;;;;;;;;;;;-1.00;99.80;;;;;;5025404;28;19943;-82
2021/01/07 08:22:52;;;;;;;;;;;-0.90;99.80;;;;;;5032027;28;19915;-80
2021/01/07 08:25:26;;;;;;;;;;;-1.00;99.90;;;;;;5040366;28;19917;-81
2021/01/07 08:27:55;;;;;;;;;;;-0.90;99.80;;;;;;5050567;28;19949;-81
2021/01/07 08:30:21;;;;;;;;;;;-1.00;99.60;;;;;;5034095;28;19940;-80
2021/01/07 08:32:48;;;;;;;;;;;-1.00;99.90;;;;;;5040067;28;19936;-81
2021/01/07 08:35:14;;;;;;;;;;;-1.00;99.80;;;;;;5042103;28;19917;-80
2021/01/07 08:37:41;;;;;;;;;;;-1.00;99.80;;;;;;5035388;28;19909;-81
2021/01/07 08:40:07;;;;;;;;;;;-1.00;99.90;;;;;;5033674;28;19932;-80
2021/01/07 08:42:37;;;;;;;;;;;-0.90;99.60;;;;;;5037439;28;20142;-81
2021/01/07 08:45:07;;;;;;;;;;;-0.90;99.70;;;;;;5055088;28;19948;-80
2021/01/07 08:47:33;;;;;;;;;;;-0.90;99.70;;;;;;5041031;28;19956;-80
2021/01/07 08:50:06;;;;;;;;;;;-0.80;99.70;;;;;;5033144;28;19986;-81
2021/01/07 08:55:48;;;;;;;;;;;-0.90;99.20;;;;;;5042192;28;19923;-81
2021/01/07 08:58:23;;;;;;;;;;;-1.00;99.30;;;;;;5036755;28;19898;-80
2021/01/07 09:00:54;;;;;;;;;;;-0.90;99.30;;;;;;5047763;28;20247;-81
2021/01/07 09:03:20;;;;;;;;;;;-1.00;99.00;;;;;;5043645;28;19897;-81
2021/01/07 09:05:46;;;;;;;;;;;-0.90;99.50;;;;;;5042284;28;20279;-81
2021/01/07 09:08:13;;;;;;;;;;;-0.90;98.60;;;;;;5028547;28;19923;-80
2021/01/07 09:10:39;;;;;;;;;;;-1.00;98.80;;;;;;5030677;28;19909;-81
2021/01/07 09:13:16;;;;;;;;;;;-1.20;99.10;;;;;;5011920;28;19913;-80
2021/01/07 09:15:42;;;;;;;;;;;-1.10;99.30;;;;;;5028285;28;19941;-81
2021/01/07 09:18:08;;;;;;;;;;;-1.20;99.40;;;;;;5041613;28;20328;-81
2021/01/07 09:20:34;;;;;;;;;;;-1.10;99.60;;;;;;5054420;28;19909;-82
2021/01/07 09:23:12;;;;;;;;;;;-1.00;99.70;;;;;;5054729;28;19959;-82
2021/01/07 09:25:39;;;;;;;;;;;-1.00;99.50;;;;;;5042486;28;19963;-81
2021/01/07 09:28:06;;;;;;;;;;;-1.10;99.30;;;;;;5051989;28;19920;-81
2021/01/07 09:30:39;;;;;;;;;;;-1.00;99.50;;;;;;5059685;28;19901;-81
2021/01/07 09:33:09;;;;;;;;;;;-0.90;99.20;;;;;;5056469;28;19897;-80
2021/01/07 09:38:06;;;;;;;;;;;-1.00;99.40;;;;;;5057304;28;19909;-81
2021/01/07 09:40:32;;;;;;;;;;;-0.90;99.90;;;;;;5063425;23;19913;-80
2021/01/07 09:45:33;;;;;;;;;;;-0.70;99.40;;;;;;5314684;22;19929;-78
2021/01/07 09:48:00;;;;;;;;;;;-0.70;98.70;;;;;;5038521;28;19909;-82
2021/01/07 09:50:26;;;;;;;;;;;-0.90;98.50;;;;;;5012540;28;19909;-82
2021/01/07 09:52:51;;;;;;;;;;;-0.90;98.70;;;;;;4998572;28;19902;-81
2021/01/07 09:55:17;;;;;;;;;;;-0.90;99.20;;;;;;4988174;28;19969;-82
2021/01/07 09:57:48;;;;;;;;;;;-0.90;99.00;;;;;;5018137;28;19982;-81
2021/01/07 10:00:14;;;;;;;;;;;-0.90;99.10;;;;;;5014980;28;19985;-82
2021/01/07 10:02:45;;;;;;;;;;;-0.90;99.10;;;;;;4999855;28;19971;-82
2021/01/07 10:05:19;;;;;;;;;;;-0.80;99.30;;;;;;5016991;28;19989;-82
2021/01/07 10:07:46;;;;;;;;;;;-0.80;99.50;;;;;;4999643;28;19933;-82
2021/01/07 10:10:12;;;;;;;;;;;-0.70;99.40;;;;;;4995804;28;20468;-82
2021/01/07 10:12:51;;;;;;;;;;;-0.60;98.90;;;;;;5016763;28;19969;-82
2021/01/07 10:15:30;;;;;;;;;;;-0.60;98.40;;;;;;5001960;28;19997;-82
2021/01/07 10:17:57;;;;;;;;;;;-0.50;98.50;;;;;;5018959;28;19914;-82
2021/01/07 10:23:00;;;;;;;;;;;-0.70;98.70;;;;;;5780020;22;19936;-81
2021/01/07 10:25:29;;;;;;;;;;;-0.70;97.90;;;;;;5039680;28;19897;-81
2021/01/07 10:27:55;;;;;;;;;;;-0.60;97.20;;;;;;5037964;28;19909;-82
2021/01/07 10:30:21;;;;;;;;;;;-0.50;98.00;;;;;;5048562;28;19967;-82
2021/01/07 10:32:54;;;;;;;;;;;-0.50;97.30;;;;;;5055357;28;19945;-81
2021/01/07 10:35:43;;;;;;;;;;;-0.70;97.70;;;;;;5039461;28;19968;-81
2021/01/07 10:38:11;;;;;;;;;;;-0.40;97.60;;;;;;5024077;28;19916;-81
2021/01/07 10:40:45;;;;;;;;;;;-0.50;97.00;;;;;;5032228;28;19932;-81
2021/01/07 10:43:24;;;;;;;;;;;-0.40;97.60;;;;;;5048121;28;19913;-81
2021/01/07 10:45:51;;;;;;;;;;;-0.40;97.00;;;;;;5057877;28;19897;-81
2021/01/07 10:48:19;;;;;;;;;;;-0.20;97.00;;;;;;5356702;23;19936;-82
2021/01/07 11:19:16;;;;;;;;;;;-0.20;96.00;;;;;;5779352;22;20947;-77
2021/01/07 11:21:45;;;;;;;;;;;-0.20;97.10;;;;;;5046386;28;19928;-83
2021/01/07 11:24:11;;;;;;;;;;;-0.20;97.60;;;;;;5041080;28;19904;-84
2021/01/07 11:26:39;;;;;;;;;;;-0.10;97.30;;;;;;5297400;23;19909;-84
2021/01/07 11:29:06;;;;;;;;;;;-0.20;96.90;;;;;;5038420;28;19898;-85
2021/01/07 11:31:34;;;;;;;;;;;-0.20;97.30;;;;;;5524253;23;19960;-84
2021/01/07 11:34:02;;;;;;;;;;;-0.20;97.70;;;;;;5032910;28;19897;-83
2021/01/07 11:36:49;;;;;;;;;;;-0.10;97.80;;;;;;5023338;28;20011;-83
2021/01/07 11:39:30;;;;;;;;;;;-0.20;97.40;;;;;;5039774;28;19906;-85
2021/01/07 11:45:35;;;;;;;;;;;0.10;97.50;;;;;;5033340;28;19943;-84
2021/01/07 11:48:07;;;;;;;;;;;0.10;98.00;;;;;;5031113;28;19920;-85
2021/01/07 11:50:38;;;;;;;;;;;0.20;97.80;;;;;;5021385;28;19917;-85
2021/01/07 11:53:09;;;;;;;;;;;0.20;97.40;;;;;;5027569;28;19956;-85
2021/01/07 11:55:35;;;;;;;;;;;0.20;97.80;;;;;;5028578;23;19933;-84
2021/01/07 11:58:01;;;;;;;;;;;0.30;97.90;;;;;;5021501;28;19941;-85
2021/01/07 12:00:32;;;;;;;;;;;0.30;97.60;;;;;;5022501;28;19906;-84
2021/01/07 12:03:39;;;;;;;;;;;0.50;97.80;;;;;;5038983;28;19910;-85
2021/01/07 12:09:04;;;;;;;;;;;0.40;96.50;;;;;;5252601;23;19945;-85
2021/01/07 12:11:32;;;;;;;;;;;0.50;96.10;;;;;;5040356;28;19975;-84
2021/01/07 14:28:51;;;;;;;;;;;1.50;96.00;;;;;;5937532;23;19920;-82
2021/01/07 14:33:54;;;;;;;;;;;1.50;95.80;;;;;;5256909;23;19926;-86
2021/01/07 14:38:47;;;;;;;;;;;1.60;96.20;;;;;;5536960;23;19909;-84
2021/01/07 14:41:15;;;;;;;;;;;1.60;96.10;;;;;;5038381;28;19898;-84
2021/01/07 14:59:24;;;;;;;;;;;1.30;96.60;;;;;;5036945;28;19910;-83
2021/01/07 15:43:34;;;;;;;;;;;1.30;97.40;;;;;;1327206;23;20207;-83
2021/01/07 15:46:03;;;;;;;;;;;1.20;97.60;;;;;;5041015;28;19913;-85
2021/01/07 15:56:35;;;;;;;;;;;1.20;98.30;;;;;;6055401;23;20910;-81
2021/01/07 16:01:40;;;;;;;;;;;1.20;98.30;;;;;;5559517;23;19909;-85
2021/01/07 16:04:08;;;;;;;;;;;1.30;98.10;;;;;;5199187;23;19925;-84
2021/01/07 16:09:09;;;;;;;;;;;1.40;97.90;;;;;;5995035;23;20601;-82
2021/01/07 16:14:13;;;;;;;;;;;1.30;97.90;;;;;;5644959;22;19928;-84
2021/01/07 16:16:39;;;;;;;;;;;1.30;98.10;;;;;;5022795;28;19937;-84
2021/01/07 16:19:08;;;;;;;;;;;1.20;98.10;;;;;;5026217;28;19921;-85
2021/01/07 16:21:53;;;;;;;;;;;1.20;98.10;;;;;;5020827;28;19905;-85
2021/01/07 16:24:23;;;;;;;;;;;1.20;98.40;;;;;;5152666;23;19943;-86
2021/01/07 16:29:28;;;;;;;;;;;1.20;98.20;;;;;;5060103;22;19909;-84
2021/01/07 16:31:55;;;;;;;;;;;1.30;98.40;;;;;;5019274;28;19918;-84
2021/01/07 16:34:21;;;;;;;;;;;1.20;98.40;;;;;;5020512;28;19913;-85
2021/01/07 16:36:49;;;;;;;;;;;1.20;98.30;;;;;;5383696;23;19998;-83
2021/01/07 16:39:16;;;;;;;;;;;1.20;98.50;;;;;;5039486;28;19977;-85
2021/01/07 16:41:44;;;;;;;;;;;1.20;98.60;;;;;;5036197;28;19961;-85
2021/01/07 16:44:10;;;;;;;;;;;1.10;98.70;;;;;;5045035;28;19914;-84
2021/01/07 16:51:47;;;;;;;;;;;1.10;99.00;;;;;;5270356;23;19937;-86
2021/01/07 16:56:42;;;;;;;;;;;1.20;99.10;;;;;;5307083;23;19917;-84
2021/01/07 17:04:19;;;;;;;;;;;1.10;99.10;;;;;;5257943;23;19932;-85
2021/01/07 17:17:06;;;;;;;;;;;1.20;99.40;;;;;;5230079;23;19926;-86
2021/01/07 17:19:36;;;;;;;;;;;1.10;99.20;;;;;;5135448;23;19931;-85
2021/01/07 17:29:48;;;;;;;;;;;1.10;99.10;;;;;;6004599;23;19946;-85
2021/01/07 17:32:14;;;;;;;;;;;1.20;99.00;;;;;;5106978;23;19910;-85
2021/01/07 18:00:34;;;;;;;;;;;1.00;99.30;;;;;;5798451;23;20358;-85
2021/01/07 18:03:03;;;;;;;;;;;1.00;99.30;;;;;;5177853;23;19931;-79
2021/01/07 18:15:51;;;;;;;;;;;1.10;99.30;;;;;;5035586;28;19933;-85
2021/01/07 18:18:17;;;;;;;;;;;1.00;99.30;;;;;;5036036;28;19893;-86
2021/01/07 20:17:14;;;;;;;;;;;0.30;98.20;;;;;;5670575;23;19909;-88
2021/01/07 20:37:47;;;;;;;;;;;0.20;98.60;;;;;;5389966;23;19936;-84
2021/01/07 20:42:48;;;;;;;;;;;0.30;98.40;;;;;;5621930;23;19908;-85
2021/01/07 20:47:49;;;;;;;;;;;0.30;98.10;;;;;;6071951;23;19916;-79
2021/01/07 20:50:15;;;;;;;;;;;0.30;98.00;;;;;;5295051;23;19910;-86
2021/01/07 20:52:42;;;;;;;;;;;0.30;97.90;;;;;;5831315;23;19912;-79
2021/01/07 21:00:14;;;;;;;;;;;0.40;97.90;;;;;;6065275;23;21124;-81
2021/01/07 21:36:15;;;;;;;;;;;0.40;98.20;;;;;;5492142;22;19947;-85
2021/01/07 21:54:13;;;;;;;;;;;0.40;98.60;;;;;;5543125;23;19917;-86
2021/01/07 22:17:13;;;;;;;;;;;0.50;99.10;;;;;;5108253;23;19916;-87
2021/01/07 22:19:42;;;;;;;;;;;0.50;99.00;;;;;;5472823;23;20420;-80
2021/01/07 22:29:54;;;;;;;;;;;0.50;98.90;;;;;;2663422;23;20104;-76
2021/01/07 22:32:20;;;;;;;;;;;0.60;98.90;;;;;;5488317;23;20692;-85
2021/01/07 22:34:48;;;;;;;;;;;0.50;98.90;;;;;;5462424;23;19990;-85
2021/01/07 22:37:14;;;;;;;;;;;0.60;98.90;;;;;;5042317;28;19897;-87
2021/01/07 22:39:40;;;;;;;;;;;0.50;98.90;;;;;;5719006;23;19932;-85
2021/01/07 22:47:16;;;;;;;;;;;0.40;99.00;;;;;;5938908;23;19928;-84
2021/01/07 22:52:10;;;;;;;;;;;0.40;99.20;;;;;;5039242;28;19916;-81
2021/01/07 23:22:58;;;;;;;;;;;0.10;99.40;;;;;;5065754;23;19929;-86
2021/01/07 23:27:59;;;;;;;;;;;0.00;99.50;;;;;;5717121;23;19909;-85
2021/01/07 23:30:25;;;;;;;;;;;0.00;99.50;;;;;;5019125;28;19928;-86
2021/01/07 23:32:51;;;;;;;;;;;-0.10;99.50;;;;;;5021674;28;19898;-86
2021/01/07 23:53:22;;;;;;;;;;;-0.10;99.60;;;;;;5679251;23;19910;-85
